Time;durP1;ratioP1;P1;durP2;ratioP2;P2;SDS_P1;SDS_P2;PMS_P1;PMS_P2;Temp;Humidity;BMP_temperature;BMP_pressure;BME280_temperature;BME280_humidity;BME280_pressure;Samples;Min_cycle;Max_cycle;Signal;HPM_P1;HPM_P2
2023/01/20 00:01:21;;;;;;;11.95;7.82;;;;;;;;;;4891509;28;98710;-76
2023/01/20 00:03:49;;;;;;;9.30;8.10;;;;;;;;;;4892205;28;99657;-76
2023/01/20 00:06:15;;;;;;;9.57;8.38;;;;;;;;;;4884505;28;100069;-78
2023/01/20 00:08:42;;;;;;;10.25;9.20;;;;;;;;;;4889666;28;98823;-77
2023/01/20 00:11:10;;;;;;;9.65;8.73;;;;;;;;;;4891822;28;99973;-77
2023/01/20 00:13:37;;;;;;;10.02;8.30;;;;;;;;;;4891010;28;100516;-77
2023/01/20 00:16:04;;;;;;;10.50;8.63;;;;;;;;;;4895024;28;98308;-77
2023/01/20 00:18:30;;;;;;;9.73;8.73;;;;;;;;;;4891136;28;99219;-77
2023/01/20 00:21:00;;;;;;;10.23;8.57;;;;;;;;;;4891410;28;98239;-76
2023/01/20 00:23:27;;;;;;;9.30;8.40;;;;;;;;;;4890880;28;100711;-76
2023/01/20 00:25:53;;;;;;;11.93;9.13;;;;;;;;;;4890842;28;100809;-77
2023/01/20 00:28:19;;;;;;;10.02;9.10;;;;;;;;;;4891621;28;98129;-77
2023/01/20 00:30:46;;;;;;;12.48;10.98;;;;;;;;;;4893345;28;98442;-77
2023/01/20 00:33:12;;;;;;;12.10;10.10;;;;;;;;;;4890436;28;100124;-76
2023/01/20 00:35:39;;;;;;;12.32;10.82;;;;;;;;;;4894360;28;98165;-77
2023/01/20 00:38:05;;;;;;;12.02;10.35;;;;;;;;;;4890418;28;99969;-78
2023/01/20 00:40:31;;;;;;;19.27;12.32;;;;;;;;;;4884869;28;98463;-78
2023/01/20 00:42:58;;;;;;;15.50;13.80;;;;;;;;;;4888185;28;99440;-77
2023/01/20 00:45:25;;;;;;;19.77;14.60;;;;;;;;;;4890120;28;99879;-77
2023/01/20 00:47:51;;;;;;;18.85;14.25;;;;;;;;;;4889201;28;99556;-77
2023/01/20 00:50:17;;;;;;;20.30;14.48;;;;;;;;;;4883942;28;99631;-77
2023/01/20 00:52:44;;;;;;;18.50;14.20;;;;;;;;;;4889289;28;100088;-77
2023/01/20 00:55:10;;;;;;;19.63;14.55;;;;;;;;;;4890176;28;98359;-77
2023/01/20 00:57:37;;;;;;;20.38;14.93;;;;;;;;;;4892719;28;99880;-77
2023/01/20 01:00:04;;;;;;;21.02;16.05;;;;;;;;;;4890604;28;98386;-77
2023/01/20 01:02:30;;;;;;;19.60;14.98;;;;;;;;;;4889412;28;100149;-78
2023/01/20 01:04:56;;;;;;;24.52;15.30;;;;;;;;;;4890085;28;99878;-77
2023/01/20 01:07:23;;;;;;;20.38;15.48;;;;;;;;;;4891126;28;98306;-78
2023/01/20 01:09:49;;;;;;;24.75;17.02;;;;;;;;;;4890599;28;98777;-78
2023/01/20 01:12:16;;;;;;;20.05;16.05;;;;;;;;;;4890866;28;98991;-78
2023/01/20 01:14:42;;;;;;;21.00;16.27;;;;;;;;;;4891548;28;98267;-77
2023/01/20 01:17:08;;;;;;;22.92;18.63;;;;;;;;;;4890554;28;98660;-78
2023/01/20 01:19:35;;;;;;;22.67;17.30;;;;;;;;;;4893410;28;100582;-77
2023/01/20 01:22:01;;;;;;;25.60;17.85;;;;;;;;;;4890014;28;99679;-78
2023/01/20 01:24:27;;;;;;;25.63;19.80;;;;;;;;;;4889828;28;100072;-77
2023/01/20 01:26:54;;;;;;;30.48;19.30;;;;;;;;;;4890496;28;98290;-79
2023/01/20 01:29:20;;;;;;;24.80;17.38;;;;;;;;;;4890775;28;98508;-78
2023/01/20 01:31:46;;;;;;;23.33;18.13;;;;;;;;;;4890459;28;99909;-78
2023/01/20 01:34:14;;;;;;;26.88;19.80;;;;;;;;;;4889996;28;99065;-77
2023/01/20 01:36:40;;;;;;;28.48;20.65;;;;;;;;;;4890475;28;99656;-78
2023/01/20 01:39:07;;;;;;;27.63;19.70;;;;;;;;;;4884457;28;100024;-78
2023/01/20 01:41:33;;;;;;;28.15;20.73;;;;;;;;;;4893686;28;98299;-78
2023/01/20 01:44:03;;;;;;;26.30;18.35;;;;;;;;;;4890165;28;99602;-76
2023/01/20 01:46:29;;;;;;;29.88;22.30;;;;;;;;;;4888888;28;98319;-77
2023/01/20 01:48:56;;;;;;;29.60;21.60;;;;;;;;;;4890472;28;99479;-78
2023/01/20 01:51:24;;;;;;;32.45;22.58;;;;;;;;;;4890493;28;99185;-78
2023/01/20 01:53:53;;;;;;;33.55;21.55;;;;;;;;;;4889776;28;98326;-78
2023/01/20 01:56:21;;;;;;;32.63;22.42;;;;;;;;;;4890248;28;98547;-78
2023/01/20 01:58:49;;;;;;;41.78;22.92;;;;;;;;;;4890446;28;100171;-77
2023/01/20 02:01:15;;;;;;;31.05;21.83;;;;;;;;;;4889247;28;98345;-77
2023/01/20 02:03:51;;;;;;;34.95;22.80;;;;;;;;;;4893502;28;99459;-76
2023/01/20 02:06:18;;;;;;;34.35;22.58;;;;;;;;;;4889226;28;98322;-77
2023/01/20 02:08:45;;;;;;;36.22;24.00;;;;;;;;;;4890414;28;98439;-77
2023/01/20 02:11:11;;;;;;;34.50;22.67;;;;;;;;;;4889129;28;99082;-77
2023/01/20 02:13:38;;;;;;;35.97;23.25;;;;;;;;;;4889479;28;98359;-77
2023/01/20 02:16:16;;;;;;;36.45;23.80;;;;;;;;;;4884048;28;99540;-77
2023/01/20 02:18:49;;;;;;;38.78;24.60;;;;;;;;;;4891751;28;100019;-76
2023/01/20 02:21:18;;;;;;;40.03;25.77;;;;;;;;;;4890030;28;98341;-76
2023/01/20 02:24:03;;;;;;;36.25;23.30;;;;;;;;;;4890029;28;99659;-76
2023/01/20 02:26:45;;;;;;;40.35;22.65;;;;;;;;;;4894502;28;100077;-78
2023/01/20 02:29:30;;;;;;;35.38;23.60;;;;;;;;;;4889512;28;99434;-77
2023/01/20 02:32:15;;;;;;;40.55;23.38;;;;;;;;;;4893354;28;99178;-77
2023/01/20 02:35:00;;;;;;;38.58;23.70;;;;;;;;;;4892182;28;98271;-78
2023/01/20 02:37:28;;;;;;;38.88;24.60;;;;;;;;;;4892198;28;99711;-77
2023/01/20 02:39:55;;;;;;;36.92;23.52;;;;;;;;;;4893035;28;99336;-77
2023/01/20 02:42:24;;;;;;;41.80;25.35;;;;;;;;;;4892184;28;98358;-78
2023/01/20 02:44:50;;;;;;;39.42;26.10;;;;;;;;;;4893318;28;99370;-77
2023/01/20 02:47:37;;;;;;;47.22;26.45;;;;;;;;;;4896029;28;99276;-77
2023/01/20 02:50:09;;;;;;;46.58;27.73;;;;;;;;;;4893045;28;99438;-78
2023/01/20 02:52:38;;;;;;;38.17;25.92;;;;;;;;;;4892872;28;99938;-78
2023/01/20 02:55:09;;;;;;;44.30;26.35;;;;;;;;;;4893784;28;98338;-78
2023/01/20 02:57:39;;;;;;;45.03;27.60;;;;;;;;;;4892774;28;100023;-78
2023/01/20 03:00:12;;;;;;;50.03;27.45;;;;;;;;;;4893098;28;99181;-77
2023/01/20 03:02:40;;;;;;;42.60;27.88;;;;;;;;;;4890934;28;98817;-78
2023/01/20 03:05:10;;;;;;;52.17;28.80;;;;;;;;;;4890856;28;98768;-77
2023/01/20 03:07:39;;;;;;;55.58;30.38;;;;;;;;;;4889825;28;99039;-78
2023/01/20 03:10:07;;;;;;;52.10;30.40;;;;;;;;;;4893831;28;98385;-78
2023/01/20 03:12:44;;;;;;;55.58;29.98;;;;;;;;;;4892261;28;100024;-77
2023/01/20 03:15:11;;;;;;;56.45;30.48;;;;;;;;;;4893034;28;98385;-77
2023/01/20 03:17:38;;;;;;;63.72;30.27;;;;;;;;;;4892480;28;99567;-77
2023/01/20 03:20:05;;;;;;;52.13;29.83;;;;;;;;;;4893210;28;100181;-77
2023/01/20 03:22:31;;;;;;;60.83;33.53;;;;;;;;;;4892517;28;99695;-78
2023/01/20 03:24:58;;;;;;;51.88;30.35;;;;;;;;;;4892200;28;98210;-78
2023/01/20 03:27:25;;;;;;;55.63;30.90;;;;;;;;;;4891842;28;99080;-78
2023/01/20 03:29:51;;;;;;;56.80;31.48;;;;;;;;;;4892265;28;98371;-78
2023/01/20 03:32:21;;;;;;;61.92;32.33;;;;;;;;;;4894588;28;99478;-78
2023/01/20 03:34:47;;;;;;;64.60;32.88;;;;;;;;;;4892013;28;100191;-77
2023/01/20 03:37:14;;;;;;;60.42;31.33;;;;;;;;;;4891745;28;99814;-77
2023/01/20 03:39:41;;;;;;;58.45;32.33;;;;;;;;;;4891360;28;100018;-77
2023/01/20 03:42:07;;;;;;;71.00;36.47;;;;;;;;;;4891727;28;98300;-78
2023/01/20 03:44:56;;;;;;;66.95;33.72;;;;;;;;;;4891452;28;99846;-77
2023/01/20 03:47:28;;;;;;;68.72;31.52;;;;;;;;;;4891521;28;100154;-77
2023/01/20 03:50:02;;;;;;;73.30;34.60;;;;;;;;;;4886494;28;98171;-78
2023/01/20 03:52:48;;;;;;;67.00;34.67;;;;;;;;;;4890479;28;99458;-78
2023/01/20 03:55:20;;;;;;;80.90;35.13;;;;;;;;;;4894384;28;100376;-78
2023/01/20 03:58:02;;;;;;;76.97;35.55;;;;;;;;;;4891968;28;99476;-77
2023/01/20 04:00:30;;;;;;;71.95;33.65;;;;;;;;;;4890950;28;98883;-77
2023/01/20 04:02:57;;;;;;;68.65;34.70;;;;;;;;;;4891843;28;99483;-78
2023/01/20 04:05:25;;;;;;;76.80;36.13;;;;;;;;;;4891136;28;98618;-78
2023/01/20 04:07:52;;;;;;;83.22;38.30;;;;;;;;;;4890817;28;100232;-77
2023/01/20 04:10:18;;;;;;;80.93;37.03;;;;;;;;;;4891546;28;98278;-78
2023/01/20 04:12:45;;;;;;;75.32;38.22;;;;;;;;;;4891394;28;100142;-77
2023/01/20 04:15:11;;;;;;;78.65;36.15;;;;;;;;;;4891029;28;100313;-78
2023/01/20 04:17:38;;;;;;;73.97;34.30;;;;;;;;;;4894307;28;99414;-77
2023/01/20 04:20:07;;;;;;;76.35;36.00;;;;;;;;;;4890559;28;99328;-77
2023/01/20 04:22:38;;;;;;;75.93;36.47;;;;;;;;;;4891333;28;99791;-78
2023/01/20 04:25:07;;;;;;;75.30;37.70;;;;;;;;;;4891366;28;99447;-77
2023/01/20 04:27:33;;;;;;;77.60;37.67;;;;;;;;;;4890086;28;100033;-77
2023/01/20 04:30:00;;;;;;;82.95;36.60;;;;;;;;;;4891669;28;98924;-77
2023/01/20 04:32:26;;;;;;;75.40;36.58;;;;;;;;;;4891556;28;98560;-77
2023/01/20 04:34:53;;;;;;;86.00;36.78;;;;;;;;;;4890574;28;98198;-76
2023/01/20 04:37:19;;;;;;;91.00;38.47;;;;;;;;;;4891007;28;98332;-77
2023/01/20 04:39:45;;;;;;;75.78;34.35;;;;;;;;;;4894021;28;99567;-77
2023/01/20 04:42:12;;;;;;;82.13;37.38;;;;;;;;;;4889487;28;98464;-77
2023/01/20 04:44:38;;;;;;;75.95;34.88;;;;;;;;;;4892003;28;98681;-77
2023/01/20 04:47:07;;;;;;;72.35;33.28;;;;;;;;;;4896737;28;99019;-78
2023/01/20 04:49:34;;;;;;;81.45;35.70;;;;;;;;;;4894559;28;98278;-77
2023/01/20 04:52:00;;;;;;;76.38;35.85;;;;;;;;;;4891116;28;98681;-78
2023/01/20 04:54:27;;;;;;;76.65;33.35;;;;;;;;;;4890533;28;99380;-77
2023/01/20 04:56:53;;;;;;;80.53;36.13;;;;;;;;;;4890036;28;98263;-78
2023/01/20 04:59:19;;;;;;;75.95;35.58;;;;;;;;;;4893929;28;100311;-77
2023/01/20 05:01:46;;;;;;;76.75;35.20;;;;;;;;;;4890548;28;99389;-77
2023/01/20 05:04:12;;;;;;;64.85;30.63;;;;;;;;;;4890916;28;98535;-77
2023/01/20 05:06:41;;;;;;;73.10;34.08;;;;;;;;;;4889467;28;100257;-76
2023/01/20 05:09:12;;;;;;;77.13;36.13;;;;;;;;;;4890256;28;98778;-76
2023/01/20 05:11:38;;;;;;;70.68;35.33;;;;;;;;;;4890080;28;100049;-77
2023/01/20 05:14:04;;;;;;;80.47;33.80;;;;;;;;;;4887183;28;101076;-77
2023/01/20 05:16:32;;;;;;;73.20;34.28;;;;;;;;;;4888574;28;99019;-77
2023/01/20 05:18:59;;;;;;;79.38;35.78;;;;;;;;;;4891093;28;98741;-77
2023/01/20 05:21:26;;;;;;;81.18;35.08;;;;;;;;;;4893163;28;99231;-78
2023/01/20 05:23:53;;;;;;;78.60;33.33;;;;;;;;;;4890990;28;98664;-76
2023/01/20 05:26:21;;;;;;;72.03;33.65;;;;;;;;;;4889868;28;99489;-77
2023/01/20 05:28:47;;;;;;;79.90;35.30;;;;;;;;;;4890905;28;98315;-77
2023/01/20 05:31:14;;;;;;;78.25;33.75;;;;;;;;;;4888771;28;98682;-78
2023/01/20 05:33:40;;;;;;;66.03;30.27;;;;;;;;;;4890025;28;100296;-77
2023/01/20 05:36:08;;;;;;;75.95;33.63;;;;;;;;;;4890112;28;98240;-77
2023/01/20 05:38:34;;;;;;;80.28;35.88;;;;;;;;;;4889564;28;99790;-76
2023/01/20 05:41:02;;;;;;;76.90;35.30;;;;;;;;;;4890024;28;99975;-77
2023/01/20 05:43:28;;;;;;;67.95;30.40;;;;;;;;;;4893352;28;98194;-76
2023/01/20 05:45:54;;;;;;;78.07;36.55;;;;;;;;;;4889264;28;99951;-78
2023/01/20 05:48:21;;;;;;;70.80;31.23;;;;;;;;;;4890074;28;98370;-77
2023/01/20 05:50:47;;;;;;;67.60;31.90;;;;;;;;;;4890548;28;99455;-77
2023/01/20 05:53:14;;;;;;;82.85;36.00;;;;;;;;;;4888814;28;100032;-77
2023/01/20 05:55:40;;;;;;;78.68;37.47;;;;;;;;;;4889128;28;98322;-76
2023/01/20 05:58:07;;;;;;;75.32;36.25;;;;;;;;;;4888894;28;99624;-77
2023/01/20 06:00:33;;;;;;;83.30;37.78;;;;;;;;;;4890106;28;100119;-78
2023/01/20 06:03:00;;;;;;;77.85;37.85;;;;;;;;;;4891952;28;98323;-78
2023/01/20 06:05:26;;;;;;;80.45;39.28;;;;;;;;;;4895586;28;99709;-78
2023/01/20 06:07:53;;;;;;;83.03;39.15;;;;;;;;;;4893496;28;98486;-78
2023/01/20 06:10:19;;;;;;;85.90;39.05;;;;;;;;;;4895562;28;98599;-77
2023/01/20 06:12:52;;;;;;;85.18;39.47;;;;;;;;;;4892906;28;99187;-76
2023/01/20 06:15:19;;;;;;;;;;;;;;;;;;4893632;28;98267;-77
2023/01/20 06:17:45;;;;;;;81.80;38.50;;;;;;;;;;4892321;28;129076;-77
2023/01/20 06:20:11;;;;;;;76.00;35.60;;;;;;;;;;4891820;28;99431;-77
2023/01/20 06:22:38;;;;;;;74.43;35.95;;;;;;;;;;4892994;28;98379;-77
2023/01/20 06:25:04;;;;;;;96.65;41.75;;;;;;;;;;4892960;28;99930;-77
2023/01/20 06:27:31;;;;;;;85.35;39.25;;;;;;;;;;4895121;28;99410;-78
2023/01/20 06:29:57;;;;;;;89.85;39.70;;;;;;;;;;4893421;28;98771;-78
2023/01/20 06:32:23;;;;;;;88.93;41.90;;;;;;;;;;4892420;28;100232;-78
2023/01/20 06:34:51;;;;;;;97.13;43.53;;;;;;;;;;4892421;28;98406;-78
2023/01/20 06:37:18;;;;;;;86.75;40.55;;;;;;;;;;4892931;28;98835;-78
2023/01/20 06:39:44;;;;;;;82.63;36.55;;;;;;;;;;4890195;28;100214;-78
2023/01/20 06:42:11;;;;;;;104.15;40.45;;;;;;;;;;4891547;28;98841;-77
2023/01/20 06:44:37;;;;;;;93.55;40.67;;;;;;;;;;4885977;28;98731;-78
2023/01/20 06:47:04;;;;;;;98.60;41.40;;;;;;;;;;4887486;28;100035;-78
2023/01/20 06:49:32;;;;;;;100.35;40.10;;;;;;;;;;4895054;28;98621;-78
2023/01/20 06:51:59;;;;;;;95.78;42.75;;;;;;;;;;4891963;28;99990;-79
2023/01/20 06:54:26;;;;;;;93.60;40.00;;;;;;;;;;4890114;28;98457;-79
2023/01/20 06:56:52;;;;;;;99.80;40.33;;;;;;;;;;4889130;28;99590;-83
2023/01/20 06:59:18;;;;;;;90.40;39.95;;;;;;;;;;4892350;28;99907;-83
2023/01/20 07:01:45;;;;;;;105.45;42.60;;;;;;;;;;4892195;28;98488;-81
2023/01/20 07:04:14;;;;;;;106.57;41.22;;;;;;;;;;4890531;28;98684;-81
2023/01/20 07:06:41;;;;;;;92.53;40.15;;;;;;;;;;4891255;28;100326;-81
2023/01/20 07:09:11;;;;;;;67.20;32.50;;;;;;;;;;4894110;28;98429;-80
2023/01/20 07:11:37;;;;;;;82.68;35.63;;;;;;;;;;4892252;28;101073;-81
2023/01/20 07:14:05;;;;;;;78.78;36.83;;;;;;;;;;4892047;28;98283;-80
2023/01/20 07:16:32;;;;;;;87.78;36.05;;;;;;;;;;4889746;28;99553;-80
2023/01/20 07:18:58;;;;;;;84.93;35.13;;;;;;;;;;4889809;28;101315;-81
2023/01/20 07:21:25;;;;;;;74.90;33.25;;;;;;;;;;4889429;28;98844;-81
2023/01/20 07:23:52;;;;;;;77.25;35.95;;;;;;;;;;4889677;28;98732;-83
2023/01/20 07:26:19;;;;;;;78.10;37.20;;;;;;;;;;4891132;28;100123;-80
2023/01/20 07:28:46;;;;;;;81.88;35.38;;;;;;;;;;4892610;28;98339;-84
2023/01/20 07:31:13;;;;;;;85.55;38.97;;;;;;;;;;4894258;28;98694;-85
2023/01/20 07:33:40;;;;;;;80.13;36.53;;;;;;;;;;4890083;28;98856;-83
2023/01/20 07:36:07;;;;;;;79.07;35.65;;;;;;;;;;4890517;28;99343;-81
2023/01/20 07:38:34;;;;;;;76.25;39.65;;;;;;;;;;4890383;28;99418;-79
2023/01/20 07:41:01;;;;;;;79.47;39.35;;;;;;;;;;4891678;28;98756;-80
2023/01/20 07:43:30;;;;;;;87.57;38.10;;;;;;;;;;4891401;28;98804;-79
2023/01/20 07:45:58;;;;;;;89.97;40.20;;;;;;;;;;4891420;28;99801;-80
2023/01/20 07:48:24;;;;;;;81.85;37.78;;;;;;;;;;4891089;28;98302;-80
2023/01/20 07:51:00;;;;;;;80.32;38.25;;;;;;;;;;4890635;28;99560;-80
2023/01/20 07:53:34;;;;;;;81.07;38.10;;;;;;;;;;4892260;28;100102;-79
2023/01/20 07:56:02;;;;;;;78.60;35.20;;;;;;;;;;4891061;28;99650;-79
2023/01/20 07:58:28;;;;;;;77.63;34.88;;;;;;;;;;4889676;28;99112;-79
2023/01/20 08:00:55;;;;;;;93.13;39.60;;;;;;;;;;4890295;28;98358;-80
2023/01/20 08:03:21;;;;;;;76.38;33.80;;;;;;;;;;4890892;28;98637;-79
2023/01/20 08:05:48;;;;;;;70.55;34.22;;;;;;;;;;4889836;28;100261;-77
2023/01/20 08:08:14;;;;;;;78.47;36.97;;;;;;;;;;4889879;28;98418;-77
2023/01/20 08:10:41;;;;;;;86.90;37.90;;;;;;;;;;4890410;28;98894;-77
2023/01/20 08:13:07;;;;;;;77.07;37.65;;;;;;;;;;4890643;28;100040;-78
2023/01/20 08:15:33;;;;;;;78.07;37.08;;;;;;;;;;4891198;28;100074;-77
2023/01/20 08:18:00;;;;;;;83.15;39.20;;;;;;;;;;4890915;28;100284;-77
2023/01/20 08:20:26;;;;;;;81.82;38.35;;;;;;;;;;4890000;28;98288;-78
2023/01/20 08:22:52;;;;;;;76.97;38.67;;;;;;;;;;4887334;28;100029;-79
2023/01/20 08:25:19;;;;;;;80.20;37.42;;;;;;;;;;4886331;28;99041;-76
2023/01/20 08:27:46;;;;;;;64.72;34.08;;;;;;;;;;4886591;28;100501;-76
2023/01/20 08:30:13;;;;;;;75.38;36.95;;;;;;;;;;4888830;28;98767;-76
2023/01/20 08:32:39;;;;;;;70.38;35.10;;;;;;;;;;4888715;28;100050;-76
2023/01/20 08:35:05;;;;;;;70.10;33.05;;;;;;;;;;4889416;28;99406;-76
2023/01/20 08:37:34;;;;;;;76.75;36.20;;;;;;;;;;4893434;28;99855;-76
2023/01/20 08:40:00;;;;;;;67.95;34.58;;;;;;;;;;4890398;28;98361;-76
2023/01/20 08:42:27;;;;;;;71.68;34.50;;;;;;;;;;4890500;28;99433;-76
2023/01/20 08:44:53;;;;;;;75.45;35.75;;;;;;;;;;4890326;28;100062;-76
2023/01/20 08:47:19;;;;;;;78.13;37.58;;;;;;;;;;4888961;28;99060;-76
2023/01/20 08:49:46;;;;;;;72.97;35.97;;;;;;;;;;4890626;28;100013;-76
2023/01/20 08:52:12;;;;;;;74.55;35.92;;;;;;;;;;4889928;28;100132;-76
2023/01/20 08:54:39;;;;;;;74.82;34.85;;;;;;;;;;4890170;28;98411;-75
2023/01/20 08:57:05;;;;;;;76.90;38.90;;;;;;;;;;4889050;28;99873;-75
2023/01/20 08:59:31;;;;;;;77.72;36.08;;;;;;;;;;4890479;28;98498;-75
2023/01/20 09:01:57;;;;;;;58.70;27.00;;;;;;;;;;4886734;28;99655;-75
2023/01/20 09:04:24;;;;;;;75.35;35.92;;;;;;;;;;4887790;28;99270;-75
2023/01/20 09:06:51;;;;;;;69.10;33.65;;;;;;;;;;4884289;28;99332;-75
2023/01/20 09:09:19;;;;;;;57.00;30.80;;;;;;;;;;4886507;28;99580;-75
2023/01/20 09:11:49;;;;;;;76.38;34.15;;;;;;;;;;4889297;28;99276;-75
2023/01/20 09:14:23;;;;;;;81.20;38.83;;;;;;;;;;4888618;28;98308;-76
2023/01/20 09:16:51;;;;;;;72.45;34.42;;;;;;;;;;4889725;28;98465;-75
2023/01/20 09:19:17;;;;;;;66.13;33.72;;;;;;;;;;4887529;28;99268;-75
2023/01/20 09:21:44;;;;;;;70.15;31.73;;;;;;;;;;4889229;28;99817;-78
2023/01/20 09:24:10;;;;;;;70.03;33.60;;;;;;;;;;4883346;28;99282;-75
2023/01/20 09:26:40;;;;;;;61.50;32.25;;;;;;;;;;4890349;28;98383;-76
2023/01/20 09:29:10;;;;;;;64.80;32.95;;;;;;;;;;4881480;28;100351;-78
2023/01/20 09:31:38;;;;;;;53.75;29.83;;;;;;;;;;4888258;28;99546;-77
2023/01/20 09:34:04;;;;;;;62.70;33.47;;;;;;;;;;4887315;28;98313;-77
2023/01/20 09:36:31;;;;;;;66.82;33.10;;;;;;;;;;4887345;28;99332;-75
2023/01/20 09:43:52;;;;;;;59.03;31.92;;;;;;;;;;4892995;28;100112;-77
2023/01/20 09:44:44;;;;;;;65.78;32.78;;;;;;;;;;4888730;28;101149;-76
2023/01/20 09:47:19;;;;;;;61.10;31.83;;;;;;;;;;4889213;28;98607;-76
2023/01/20 09:53:03;;;;;;;55.53;29.75;;;;;;;;;;4885955;28;99168;-74
2023/01/20 09:55:39;;;;;;;65.20;32.85;;;;;;;;;;4891246;28;98204;-74
2023/01/20 09:58:12;;;;;;;60.50;31.38;;;;;;;;;;4886797;28;100607;-73
2023/01/20 10:00:38;;;;;;;;;;;;;;;;;;4889570;28;100358;-74
2023/01/20 10:03:14;;;;;;;51.85;26.02;;;;;;;;;;4888058;28;116477;-76
2023/01/20 10:05:41;;;;;;;60.83;29.42;;;;;;;;;;4890860;28;99460;-74
2023/01/20 10:08:32;;;;;;;54.47;28.73;;;;;;;;;;4886406;28;98291;-74
2023/01/20 10:11:04;;;;;;;52.17;27.77;;;;;;;;;;4887781;28;101587;-76
2023/01/20 10:13:36;;;;;;;52.90;28.13;;;;;;;;;;4888265;28;100196;-75
2023/01/20 10:16:06;;;;;;;55.10;28.45;;;;;;;;;;4889705;28;98288;-75
2023/01/20 10:18:39;;;;;;;61.80;28.45;;;;;;;;;;4888448;28;99396;-74
2023/01/20 10:21:12;;;;;;;52.65;27.98;;;;;;;;;;4889219;28;100371;-75
2023/01/20 10:23:42;;;;;;;52.80;27.27;;;;;;;;;;4886549;28;98342;-74
2023/01/20 10:26:12;;;;;;;51.33;29.98;;;;;;;;;;4886328;28;99545;-75
2023/01/20 10:28:54;;;;;;;59.72;28.85;;;;;;;;;;4889753;28;99147;-76
2023/01/20 10:31:24;;;;;;;51.92;28.20;;;;;;;;;;4888365;28;98893;-75
2023/01/20 10:33:52;;;;;;;53.97;29.05;;;;;;;;;;4886113;28;100467;-75
2023/01/20 10:36:21;;;;;;;50.45;27.00;;;;;;;;;;4888189;28;99508;-74
2023/01/20 10:38:54;;;;;;;57.97;29.45;;;;;;;;;;4887694;28;99827;-75
2023/01/20 10:41:21;;;;;;;;;;;;;;;;;;4888365;28;99421;-75
2023/01/20 10:43:49;;;;;;;55.20;26.05;;;;;;;;;;4887920;28;109657;-76
2023/01/20 10:46:18;;;;;;;48.05;27.23;;;;;;;;;;4889375;28;98694;-76
2023/01/20 10:48:47;;;;;;;50.92;27.38;;;;;;;;;;4887677;28;100402;-76
2023/01/20 10:51:29;;;;;;;48.33;26.98;;;;;;;;;;4891808;28;98287;-77
2023/01/20 10:54:07;;;;;;;50.75;26.38;;;;;;;;;;4888292;28;99075;-77
2023/01/20 10:56:40;;;;;;;48.67;25.65;;;;;;;;;;4889524;28;98435;-76
2023/01/20 10:59:11;;;;;;;46.72;25.70;;;;;;;;;;4891241;28;98683;-83
2023/01/20 11:01:38;;;;;;;41.83;23.63;;;;;;;;;;4890388;28;99843;-79
2023/01/20 11:04:04;;;;;;;40.92;24.23;;;;;;;;;;4893835;28;98376;-79
2023/01/20 11:06:31;;;;;;;45.67;25.85;;;;;;;;;;4890968;28;99552;-81
2023/01/20 11:09:00;;;;;;;38.60;22.50;;;;;;;;;;4889360;28;99501;-80
2023/01/20 11:11:28;;;;;;;43.03;24.30;;;;;;;;;;4889872;28;98840;-79
2023/01/20 11:13:56;;;;;;;40.22;24.05;;;;;;;;;;4883172;28;100083;-79
2023/01/20 11:16:24;;;;;;;40.03;24.98;;;;;;;;;;4885706;28;99096;-79
2023/01/20 11:19:01;;;;;;;41.70;23.95;;;;;;;;;;4890988;28;98725;-78
2023/01/20 11:21:28;;;;;;;38.17;22.73;;;;;;;;;;4891754;28;98980;-78
2023/01/20 11:23:55;;;;;;;37.08;22.52;;;;;;;;;;4891250;28;98315;-78
2023/01/20 11:26:25;;;;;;;37.65;23.23;;;;;;;;;;4892013;28;98651;-79
2023/01/20 11:29:01;;;;;;;35.20;23.55;;;;;;;;;;4885725;28;99119;-78
2023/01/20 11:31:33;;;;;;;34.72;22.08;;;;;;;;;;4891683;28;98688;-78
2023/01/20 11:34:00;;;;;;;;;;;;;;;;;;4894134;28;99676;-78
2023/01/20 11:36:27;;;;;;;31.27;21.50;;;;;;;;;;4890387;28;123927;-78
2023/01/20 11:38:54;;;;;;;35.13;22.73;;;;;;;;;;4894551;28;98717;-77
2023/01/20 11:41:22;;;;;;;31.13;21.50;;;;;;;;;;4891557;28;99937;-78
2023/01/20 11:43:49;;;;;;;37.03;23.00;;;;;;;;;;4890531;28;98390;-78
2023/01/20 11:46:18;;;;;;;37.22;24.67;;;;;;;;;;4886294;28;98695;-77
2023/01/20 11:48:44;;;;;;;34.95;23.42;;;;;;;;;;4891486;28;99928;-78
2023/01/20 11:51:18;;;;;;;32.05;22.45;;;;;;;;;;4891074;28;98429;-80
2023/01/20 11:53:45;;;;;;;34.72;23.77;;;;;;;;;;4891896;28;99512;-80
2023/01/20 11:56:17;;;;;;;32.28;22.23;;;;;;;;;;4888496;28;99170;-80
2023/01/20 11:58:49;;;;;;;29.17;20.60;;;;;;;;;;4890602;28;99426;-78
2023/01/20 12:01:26;;;;;;;29.75;22.42;;;;;;;;;;4891243;28;100243;-80
2023/01/20 12:04:02;;;;;;;30.02;21.73;;;;;;;;;;4890149;28;98336;-79
2023/01/20 12:06:33;;;;;;;31.45;22.02;;;;;;;;;;4893060;28;99023;-79
2023/01/20 12:09:02;;;;;;;32.25;21.88;;;;;;;;;;4886536;28;99084;-78
2023/01/20 12:11:30;;;;;;;32.38;21.85;;;;;;;;;;4887613;28;99318;-79
2023/01/20 12:14:21;;;;;;;30.42;22.33;;;;;;;;;;4891548;28;99587;-78
2023/01/20 12:16:57;;;;;;;31.33;22.70;;;;;;;;;;4892707;28;99182;-79
2023/01/20 12:19:28;;;;;;;35.22;23.70;;;;;;;;;;4892028;28;98877;-79
2023/01/20 12:21:58;;;;;;;30.92;22.15;;;;;;;;;;4889048;28;100853;-81
2023/01/20 12:24:27;;;;;;;31.77;22.42;;;;;;;;;;4885094;28;105006;-79
2023/01/20 12:27:14;;;;;;;37.00;22.63;;;;;;;;;;4891429;28;98155;-79
2023/01/20 12:29:44;;;;;;;33.03;22.35;;;;;;;;;;4889145;28;101246;-80
2023/01/20 12:32:10;;;;;;;33.55;22.77;;;;;;;;;;4890521;28;99786;-79
2023/01/20 12:34:37;;;;;;;28.58;21.00;;;;;;;;;;4883779;28;100395;-79
2023/01/20 12:37:27;;;;;;;34.38;22.65;;;;;;;;;;4887939;28;99651;-79
2023/01/20 12:40:03;;;;;;;27.30;20.90;;;;;;;;;;4888332;28;98273;-80
2023/01/20 12:42:36;;;;;;;32.78;21.60;;;;;;;;;;4893677;28;99489;-80
2023/01/20 12:45:19;;;;;;;37.72;22.27;;;;;;;;;;4890782;28;98677;-80
2023/01/20 12:48:04;;;;;;;33.65;22.40;;;;;;;;;;4884304;28;98822;-80
2023/01/20 12:50:34;;;;;;;30.60;21.02;;;;;;;;;;4891635;28;100529;-81
2023/01/20 12:53:03;;;;;;;32.22;23.27;;;;;;;;;;4888633;28;98808;-79
2023/01/20 12:55:36;;;;;;;29.20;22.08;;;;;;;;;;4889774;28;99334;-79
2023/01/20 12:58:06;;;;;;;29.27;22.17;;;;;;;;;;4891174;28;100057;-80
2023/01/20 13:00:39;;;;;;;29.38;21.77;;;;;;;;;;4886686;28;98556;-79
2023/01/20 13:03:08;;;;;;;30.73;22.63;;;;;;;;;;4890249;28;98730;-79
2023/01/20 13:05:47;;;;;;;30.13;21.30;;;;;;;;;;4893489;28;100229;-79
2023/01/20 13:08:19;;;;;;;32.55;21.40;;;;;;;;;;4890365;28;98613;-79
2023/01/20 13:10:45;;;;;;;33.20;21.65;;;;;;;;;;4890062;28;100407;-80
2023/01/20 13:13:17;;;;;;;29.63;21.27;;;;;;;;;;4890054;28;98230;-79
2023/01/20 13:16:02;;;;;;;31.38;22.83;;;;;;;;;;4890246;28;99744;-80
2023/01/20 13:18:34;;;;;;;31.48;23.05;;;;;;;;;;4888886;28;100492;-78
2023/01/20 13:21:00;;;;;;;33.05;21.20;;;;;;;;;;4888097;28;98316;-79
2023/01/20 13:23:28;;;;;;;30.05;20.95;;;;;;;;;;4889137;28;98974;-78
2023/01/20 13:25:55;;;;;;;30.13;21.42;;;;;;;;;;4892559;28;100044;-76
2023/01/20 13:28:22;;;;;;;28.08;20.63;;;;;;;;;;4888067;28;99687;-81
2023/01/20 13:30:50;;;;;;;28.40;22.05;;;;;;;;;;4888913;28;99998;-80
2023/01/20 13:33:37;;;;;;;25.60;19.88;;;;;;;;;;4884024;28;98341;-80
2023/01/20 13:36:16;;;;;;;22.00;17.50;;;;;;;;;;4887728;28;99068;-80
2023/01/20 13:38:43;;;;;;;25.55;18.05;;;;;;;;;;4890484;28;100939;-80
2023/01/20 13:41:10;;;;;;;24.23;17.80;;;;;;;;;;4892635;28;99017;-79
2023/01/20 13:43:42;;;;;;;25.17;18.33;;;;;;;;;;4888669;28;98501;-79
2023/01/20 13:46:16;;;;;;;22.27;17.83;;;;;;;;;;4889725;28;100134;-79
2023/01/20 13:49:02;;;;;;;22.58;17.63;;;;;;;;;;4891153;28;98265;-79
2023/01/20 13:51:34;;;;;;;24.63;17.33;;;;;;;;;;4887430;28;99288;-80
2023/01/20 13:54:19;;;;;;;21.08;15.80;;;;;;;;;;4889654;28;98510;-79
2023/01/20 13:56:46;;;;;;;25.58;19.80;;;;;;;;;;4885316;28;98505;-80
2023/01/20 13:59:12;;;;;;;23.40;19.23;;;;;;;;;;4889325;28;98947;-79
2023/01/20 14:01:39;;;;;;;21.30;18.23;;;;;;;;;;4889668;28;98305;-80
2023/01/20 14:04:06;;;;;;;25.15;18.65;;;;;;;;;;4888031;28;100006;-79
2023/01/20 14:06:34;;;;;;;26.10;18.85;;;;;;;;;;4888449;28;100134;-79
2023/01/20 14:09:01;;;;;;;19.58;17.02;;;;;;;;;;4889911;28;98955;-79
2023/01/20 14:11:28;;;;;;;22.25;17.02;;;;;;;;;;4891706;28;98728;-79
2023/01/20 14:14:00;;;;;;;26.50;18.40;;;;;;;;;;4889181;28;100049;-79
2023/01/20 14:16:36;;;;;;;26.67;19.38;;;;;;;;;;4885215;28;99665;-78
2023/01/20 14:19:22;;;;;;;21.38;17.80;;;;;;;;;;4889370;28;99981;-80
2023/01/20 14:21:53;;;;;;;21.02;16.58;;;;;;;;;;4888040;28;98400;-80
2023/01/20 14:24:25;;;;;;;23.13;17.55;;;;;;;;;;4889356;28;99414;-79
2023/01/20 14:27:11;;;;;;;23.60;17.40;;;;;;;;;;4891055;28;99196;-80
2023/01/20 14:29:38;;;;;;;23.23;18.45;;;;;;;;;;4892535;28;98229;-79
2023/01/20 14:32:13;;;;;;;26.50;20.05;;;;;;;;;;4892221;28;99651;-80
2023/01/20 14:34:39;;;;;;;23.80;17.05;;;;;;;;;;4896051;28;100010;-79